sensor_id;sensor_type;location;lat;lon;timestamp;pressure;altitude;pressure_sealevel;temperature;humidity
19759;BME280;10038;42.662;23.278;2023-04-07T00:01:57;159416.69;;;2.77;61.01
19759;BME280;10038;42.662;23.278;2023-04-07T00:04:24;159395.50;;;2.69;61.64
19759;BME280;10038;42.662;23.278;2023-04-07T00:06:51;159412.69;;;2.75;60.99
19759;BME280;10038;42.662;23.278;2023-04-07T00:09:19;159404.75;;;2.72;61.39
19759;BME280;10038;42.662;23.278;2023-04-07T00:11:46;159400.78;;;2.71;61.59
19759;BME280;10038;42.662;23.278;2023-04-07T00:14:14;159233.91;;;2.07;61.56
19759;BME280;10038;42.662;23.278;2023-04-07T00:16:41;159374.31;;;2.61;61.72
19759;BME280;10038;42.662;23.278;2023-04-07T00:19:08;159391.50;;;2.67;61.59
19759;BME280;10038;42.662;23.278;2023-04-07T00:21:34;159422.00;;;2.79;61.22
19759;BME280;10038;42.662;23.278;2023-04-07T00:24:01;159424.66;;;2.80;61.25
19759;BME280;10038;42.662;23.278;2023-04-07T00:26:30;159399.47;;;2.70;61.17
19759;BME280;10038;42.662;23.278;2023-04-07T00:28:57;159406.06;;;2.73;61.27
19759;BME280;10038;42.662;23.278;2023-04-07T00:31:25;159408.75;;;2.74;61.03
19759;BME280;10038;42.662;23.278;2023-04-07T00:33:52;159411.34;;;2.75;61.19
19759;BME280;10038;42.662;23.278;2023-04-07T00:36:20;159398.13;;;2.70;62.03
19759;BME280;10038;42.662;23.278;2023-04-07T00:38:47;159379.59;;;2.63;62.67
19759;BME280;10038;42.662;23.278;2023-04-07T00:41:14;159349.13;;;2.51;64.47
19759;BME280;10038;42.662;23.278;2023-04-07T00:43:42;159339.84;;;2.48;64.36
19759;BME280;10038;42.662;23.278;2023-04-07T00:46:10;159345.16;;;2.50;64.31
19759;BME280;10038;42.662;23.278;2023-04-07T00:48:37;159346.44;;;2.50;62.83
19759;BME280;10038;42.662;23.278;2023-04-07T00:51:06;159383.56;;;2.64;61.50
19759;BME280;10038;42.662;23.278;2023-04-07T00:53:34;159411.34;;;2.75;60.86
19759;BME280;10038;42.662;23.278;2023-04-07T00:56:01;159408.75;;;2.74;61.06
19759;BME280;10038;42.662;23.278;2023-04-07T00:58:28;159204.78;;;1.96;61.64
19759;BME280;10038;42.662;23.278;2023-04-07T01:01:08;159390.16;;;2.67;61.47
19759;BME280;10038;42.662;23.278;2023-04-07T01:03:44;159406.06;;;2.73;60.59
19759;BME280;10038;42.662;23.278;2023-04-07T01:06:14;159228.63;;;2.05;61.19
19759;BME280;10038;42.662;23.278;2023-04-07T01:08:50;159390.16;;;2.67;62.72
19759;BME280;10038;42.662;23.278;2023-04-07T01:11:23;159376.94;;;2.62;62.74
19759;BME280;10038;42.662;23.278;2023-04-07T01:13:52;159368.97;;;2.59;62.83
19759;BME280;10038;42.662;23.278;2023-04-07T01:16:25;159316.03;;;2.38;62.23
19759;BME280;10038;42.662;23.278;2023-04-07T01:18:55;159382.22;;;2.64;62.56
19759;BME280;10038;42.662;23.278;2023-04-07T01:21:25;159375.59;;;2.61;62.72
19759;BME280;10038;42.662;23.278;2023-04-07T01:24:04;159362.34;;;2.56;62.92
19759;BME280;10038;42.662;23.278;2023-04-07T01:26:38;159259.09;;;2.17;63.27
19759;BME280;10038;42.662;23.278;2023-04-07T01:29:25;159355.75;;;2.54;63.79
19759;BME280;10038;42.662;23.278;2023-04-07T01:31:54;159366.34;;;2.58;63.38
19759;BME280;10038;42.662;23.278;2023-04-07T01:34:23;159374.31;;;2.61;63.39
19759;BME280;10038;42.662;23.278;2023-04-07T01:36:53;159386.22;;;2.65;63.16
19759;BME280;10038;42.662;23.278;2023-04-07T01:39:21;159407.41;;;2.73;62.60
19759;BME280;10038;42.662;23.278;2023-04-07T01:41:50;159431.28;;;2.82;61.70
19759;BME280;10038;42.662;23.278;2023-04-07T01:44:19;159453.81;;;2.91;60.19
19759;BME280;10038;42.662;23.278;2023-04-07T01:46:48;159480.28;;;3.01;59.22
19759;BME280;10038;42.662;23.278;2023-04-07T01:49:17;159471.00;;;2.97;59.20
19759;BME280;10038;42.662;23.278;2023-04-07T01:51:45;159485.56;;;3.03;58.92
19759;BME280;10038;42.662;23.278;2023-04-07T01:54:15;159516.06;;;3.15;58.37
19759;BME280;10038;42.662;23.278;2023-04-07T01:56:43;159419.31;;;2.78;57.50
19759;BME280;10038;42.662;23.278;2023-04-07T01:59:10;159504.16;;;3.10;57.85
19759;BME280;10038;42.662;23.278;2023-04-07T02:01:37;159485.56;;;3.03;59.28
19759;BME280;10038;42.662;23.278;2023-04-07T02:04:11;159443.19;;;2.87;60.65
19759;BME280;10038;42.662;23.278;2023-04-07T02:06:42;159416.69;;;2.77;60.75
19759;BME280;10038;42.662;23.278;2023-04-07T02:09:14;159414.03;;;2.76;60.12
19759;BME280;10038;42.662;23.278;2023-04-07T02:11:43;159449.81;;;2.89;59.48
19759;BME280;10038;42.662;23.278;2023-04-07T02:14:11;159424.66;;;2.80;59.23
19759;BME280;10038;42.662;23.278;2023-04-07T02:16:41;159419.31;;;2.78;59.60
19759;BME280;10038;42.662;23.278;2023-04-07T02:19:10;159449.81;;;2.89;58.20
19759;BME280;10038;42.662;23.278;2023-04-07T02:21:38;159467.03;;;2.96;57.76
19759;BME280;10038;42.662;23.278;2023-04-07T02:24:06;159485.56;;;3.03;57.15
19759;BME280;10038;42.662;23.278;2023-04-07T02:26:34;159379.59;;;2.63;56.95
19759;BME280;10038;42.662;23.278;2023-04-07T02:29:01;159501.47;;;3.09;56.93
19759;BME280;10038;42.662;23.278;2023-04-07T02:31:29;159506.78;;;3.11;56.98
19759;BME280;10038;42.662;23.278;2023-04-07T02:33:56;159379.59;;;2.63;57.13
19759;BME280;10038;42.662;23.278;2023-04-07T02:36:24;159514.72;;;3.14;57.03
19759;BME280;10038;42.662;23.278;2023-04-07T02:38:52;159517.41;;;3.15;56.82
19759;BME280;10038;42.662;23.278;2023-04-07T02:41:19;159537.28;;;3.23;56.85
19759;BME280;10038;42.662;23.278;2023-04-07T02:43:46;159558.47;;;3.31;56.50
19759;BME280;10038;42.662;23.278;2023-04-07T02:46:13;159543.88;;;3.25;56.99
19759;BME280;10038;42.662;23.278;2023-04-07T02:48:40;159504.16;;;3.10;57.04
19759;BME280;10038;42.662;23.278;2023-04-07T02:51:07;159425.94;;;2.80;57.08
19759;BME280;10038;42.662;23.278;2023-04-07T02:53:35;159530.66;;;3.20;56.94
19759;BME280;10038;42.662;23.278;2023-04-07T02:56:03;159549.19;;;3.27;57.01
19759;BME280;10038;42.662;23.278;2023-04-07T02:58:30;159558.47;;;3.31;56.57
19759;BME280;10038;42.662;23.278;2023-04-07T03:00:57;159565.09;;;3.33;56.59
19759;BME280;10038;42.662;23.278;2023-04-07T03:03:24;159565.09;;;3.33;56.94
19759;BME280;10038;42.662;23.278;2023-04-07T03:05:51;159581.00;;;3.39;56.79
19759;BME280;10038;42.662;23.278;2023-04-07T03:08:18;159545.22;;;3.26;57.70
19759;BME280;10038;42.662;23.278;2023-04-07T03:10:46;159541.22;;;3.24;58.73
19759;BME280;10038;42.662;23.278;2023-04-07T03:13:13;159546.56;;;3.26;58.53
19759;BME280;10038;42.662;23.278;2023-04-07T03:15:43;159422.00;;;2.79;58.25
19759;BME280;10038;42.662;23.278;2023-04-07T03:18:11;159541.22;;;3.24;58.15
19759;BME280;10038;42.662;23.278;2023-04-07T03:20:38;159543.88;;;3.25;58.56
19759;BME280;10038;42.662;23.278;2023-04-07T03:23:06;159390.16;;;2.67;58.71
19759;BME280;10038;42.662;23.278;2023-04-07T03:25:33;159537.28;;;3.23;58.41
19759;BME280;10038;42.662;23.278;2023-04-07T03:28:02;159525.34;;;3.18;58.00
19759;BME280;10038;42.662;23.278;2023-04-07T03:30:29;159508.09;;;3.12;58.04
19759;BME280;10038;42.662;23.278;2023-04-07T03:32:56;159549.19;;;3.27;57.76
19759;BME280;10038;42.662;23.278;2023-04-07T03:35:23;159518.72;;;3.16;58.02
19759;BME280;10038;42.662;23.278;2023-04-07T03:37:51;159485.56;;;3.03;58.96
19759;BME280;10038;42.662;23.278;2023-04-07T03:40:18;159464.38;;;2.95;59.32
19759;BME280;10038;42.662;23.278;2023-04-07T03:42:45;159433.88;;;2.83;59.72
19759;BME280;10038;42.662;23.278;2023-04-07T03:45:14;159436.56;;;2.84;59.77
19759;BME280;10038;42.662;23.278;2023-04-07T03:47:41;159433.88;;;2.83;60.05
19759;BME280;10038;42.662;23.278;2023-04-07T03:50:09;159425.94;;;2.80;59.99
19759;BME280;10038;42.662;23.278;2023-04-07T03:52:36;159429.94;;;2.82;60.27
19759;BME280;10038;42.662;23.278;2023-04-07T03:55:04;159386.22;;;2.65;60.00
19759;BME280;10038;42.662;23.278;2023-04-07T03:57:31;159415.38;;;2.76;60.25
19759;BME280;10038;42.662;23.278;2023-04-07T03:59:58;159428.59;;;2.81;59.89
19759;BME280;10038;42.662;23.278;2023-04-07T04:02:26;159407.41;;;2.73;59.98
19759;BME280;10038;42.662;23.278;2023-04-07T04:04:53;159432.59;;;2.83;59.90
19759;BME280;10038;42.662;23.278;2023-04-07T04:07:20;159444.50;;;2.87;58.94
19759;BME280;10038;42.662;23.278;2023-04-07T04:09:47;159464.38;;;2.95;59.28
19759;BME280;10038;42.662;23.278;2023-04-07T04:12:14;159477.63;;;3.00;59.14
19759;BME280;10038;42.662;23.278;2023-04-07T04:14:41;159488.25;;;3.04;59.07
19759;BME280;10038;42.662;23.278;2023-04-07T04:17:08;159498.81;;;3.08;58.70
19759;BME280;10038;42.662;23.278;2023-04-07T04:19:37;159520.00;;;3.16;58.75
19759;BME280;10038;42.662;23.278;2023-04-07T04:22:04;159533.31;;;3.21;59.25
19759;BME280;10038;42.662;23.278;2023-04-07T04:24:31;159542.56;;;3.25;59.42
19759;BME280;10038;42.662;23.278;2023-04-07T04:26:58;159541.22;;;3.24;59.05
19759;BME280;10038;42.662;23.278;2023-04-07T04:29:26;159563.75;;;3.33;58.55
19759;BME280;10038;42.662;23.278;2023-04-07T04:31:53;159557.13;;;3.30;58.10
19759;BME280;10038;42.662;23.278;2023-04-07T04:34:20;159591.59;;;3.43;57.96
19759;BME280;10038;42.662;23.278;2023-04-07T04:36:48;159582.34;;;3.40;57.37
19759;BME280;10038;42.662;23.278;2023-04-07T04:39:15;159608.84;;;3.50;57.24
19759;BME280;10038;42.662;23.278;2023-04-07T04:41:43;159640.69;;;3.62;57.43
19759;BME280;10038;42.662;23.278;2023-04-07T04:44:10;159655.25;;;3.68;57.04
19759;BME280;10038;42.662;23.278;2023-04-07T04:46:37;159645.97;;;3.64;56.86
19759;BME280;10038;42.662;23.278;2023-04-07T04:49:08;159668.50;;;3.73;56.52
19759;BME280;10038;42.662;23.278;2023-04-07T04:51:35;159708.25;;;3.88;55.92
19759;BME280;10038;42.662;23.278;2023-04-07T04:54:04;159724.19;;;3.94;55.14
19759;BME280;10038;42.662;23.278;2023-04-07T04:56:31;159721.53;;;3.93;54.76
19759;BME280;10038;42.662;23.278;2023-04-07T04:58:58;159740.09;;;4.00;55.08
19759;BME280;10038;42.662;23.278;2023-04-07T05:01:25;159771.97;;;4.12;55.08
19759;BME280;10038;42.662;23.278;2023-04-07T05:03:51;159795.81;;;4.21;54.11
19759;BME280;10038;42.662;23.278;2023-04-07T05:06:18;159851.50;;;4.42;53.33
19759;BME280;10038;42.662;23.278;2023-04-07T05:08:45;159894.00;;;4.58;53.38
19759;BME280;10038;42.662;23.278;2023-04-07T05:11:14;159915.22;;;4.66;53.70
19759;BME280;10038;42.662;23.278;2023-04-07T05:13:41;159940.41;;;4.76;53.97
19759;BME280;10038;42.662;23.278;2023-04-07T05:16:08;159965.66;;;4.86;53.96
19759;BME280;10038;42.662;23.278;2023-04-07T05:18:36;159977.56;;;4.90;53.10
19759;BME280;10038;42.662;23.278;2023-04-07T05:21:03;159970.94;;;4.88;52.73
19759;BME280;10038;42.662;23.278;2023-04-07T05:23:30;159967.00;;;4.86;52.73
19759;BME280;10038;42.662;23.278;2023-04-07T05:25:56;160057.22;;;5.20;52.15
19759;BME280;10038;42.662;23.278;2023-04-07T05:28:25;159998.81;;;4.98;51.50
19759;BME280;10038;42.662;23.278;2023-04-07T05:30:52;159856.84;;;4.44;51.65
19759;BME280;10038;42.662;23.278;2023-04-07T05:33:19;159996.13;;;4.97;51.84
19759;BME280;10038;42.662;23.278;2023-04-07T05:35:46;159997.47;;;4.98;51.28
19759;BME280;10038;42.662;23.278;2023-04-07T05:38:13;160093.06;;;5.34;51.23
19759;BME280;10038;42.662;23.278;2023-04-07T05:40:41;160138.22;;;5.51;50.94
19759;BME280;10038;42.662;23.278;2023-04-07T05:43:08;160105.00;;;5.38;50.84
19759;BME280;10038;42.662;23.278;2023-04-07T05:45:36;160097.06;;;5.35;50.82
19759;BME280;10038;42.662;23.278;2023-04-07T05:48:03;160082.47;;;5.30;50.78
19759;BME280;10038;42.662;23.278;2023-04-07T05:50:30;160109.00;;;5.40;50.67
19759;BME280;10038;42.662;23.278;2023-04-07T05:52:57;160201.94;;;5.75;50.02
19759;BME280;10038;42.662;23.278;2023-04-07T05:55:24;160207.25;;;5.77;49.71
19759;BME280;10038;42.662;23.278;2023-04-07T05:57:51;160212.59;;;5.79;49.58
19759;BME280;10038;42.662;23.278;2023-04-07T06:00:19;160086.44;;;5.31;50.31
19759;BME280;10038;42.662;23.278;2023-04-07T06:02:47;160143.50;;;5.53;49.47
19759;BME280;10038;42.662;23.278;2023-04-07T06:05:14;160345.44;;;6.30;48.44
19759;BME280;10038;42.662;23.278;2023-04-07T06:07:41;160564.75;;;7.13;46.82
19759;BME280;10038;42.662;23.278;2023-04-07T06:10:08;160856.06;;;8.23;43.45
19759;BME280;10038;42.662;23.278;2023-04-07T06:12:35;160675.16;;;7.55;44.44
19759;BME280;10038;42.662;23.278;2023-04-07T06:15:02;160830.75;;;8.14;43.25
19759;BME280;10038;42.662;23.278;2023-04-07T06:17:29;160768.25;;;7.90;43.23
19759;BME280;10038;42.662;23.278;2023-04-07T06:19:57;160715.03;;;7.70;43.32
19759;BME280;10038;42.662;23.278;2023-04-07T06:22:24;160558.13;;;7.10;44.43
19759;BME280;10038;42.662;23.278;2023-04-07T06:24:51;160426.53;;;6.61;45.69
19759;BME280;10038;42.662;23.278;2023-04-07T06:27:18;67869.03;;;-143.79;100.00
19759;BME280;10038;42.662;23.278;2023-04-07T06:29:46;160669.78;;;7.53;43.98
19759;BME280;10038;42.662;23.278;2023-04-07T06:32:13;160621.94;;;7.35;44.58
19759;BME280;10038;42.662;23.278;2023-04-07T06:34:41;160605.97;;;7.29;44.64
19759;BME280;10038;42.662;23.278;2023-04-07T06:37:09;160866.75;;;8.27;43.61
19759;BME280;10038;42.662;23.278;2023-04-07T06:39:37;160853.38;;;8.22;43.35
19759;BME280;10038;42.662;23.278;2023-04-07T06:42:12;161162.28;;;9.39;40.07
19759;BME280;10038;42.662;23.278;2023-04-07T06:44:39;161207.56;;;9.57;39.15
19759;BME280;10038;42.662;23.278;2023-04-07T06:47:06;161314.19;;;9.97;39.31
19759;BME280;10038;42.662;23.278;2023-04-07T06:49:33;161535.47;;;10.81;37.72
19759;BME280;10038;42.662;23.278;2023-04-07T06:52:00;161127.66;;;9.26;39.94
19759;BME280;10038;42.662;23.278;2023-04-07T06:54:28;161304.84;;;9.93;38.81
19759;BME280;10038;42.662;23.278;2023-04-07T06:56:55;161715.50;;;11.49;36.45
19759;BME280;10038;42.662;23.278;2023-04-07T06:59:22;161248.91;;;9.72;37.87
19759;BME280;10038;42.662;23.278;2023-04-07T07:01:49;161054.41;;;8.99;40.28
19759;BME280;10038;42.662;23.278;2023-04-07T07:04:16;161154.31;;;9.36;39.65
19759;BME280;10038;42.662;23.278;2023-04-07T07:06:43;160947.94;;;8.58;40.75
19759;BME280;10038;42.662;23.278;2023-04-07T07:09:10;161158.31;;;9.38;39.54
19759;BME280;10038;42.662;23.278;2023-04-07T07:11:38;161500.81;;;10.68;37.85
19759;BME280;10038;42.662;23.278;2023-04-07T07:14:05;161370.19;;;10.18;38.64
19759;BME280;10038;42.662;23.278;2023-04-07T07:16:32;161682.16;;;11.36;36.71
19759;BME280;10038;42.662;23.278;2023-04-07T07:18:59;161930.41;;;12.30;34.54
19759;BME280;10038;42.662;23.278;2023-04-07T07:21:26;162213.56;;;13.37;33.29
19759;BME280;10038;42.662;23.278;2023-04-07T07:23:53;161898.38;;;12.18;34.00
19759;BME280;10038;42.662;23.278;2023-04-07T07:26:20;161594.16;;;11.03;36.06
19759;BME280;10038;42.662;23.278;2023-04-07T07:28:48;161734.22;;;11.56;35.11
19759;BME280;10038;42.662;23.278;2023-04-07T07:31:15;161664.81;;;11.30;36.08
19759;BME280;10038;42.662;23.278;2023-04-07T07:33:43;161579.47;;;10.97;37.33
19759;BME280;10038;42.662;23.278;2023-04-07T07:36:10;161540.78;;;10.83;37.36
19759;BME280;10038;42.662;23.278;2023-04-07T07:38:38;161188.94;;;9.49;39.66
19759;BME280;10038;42.662;23.278;2023-04-07T07:41:05;161211.59;;;9.58;39.58
19759;BME280;10038;42.662;23.278;2023-04-07T07:43:32;160941.28;;;8.56;40.92
19759;BME280;10038;42.662;23.278;2023-04-07T07:46:01;160877.41;;;8.32;42.19
19759;BME280;10038;42.662;23.278;2023-04-07T07:48:28;161196.94;;;9.53;40.00
19759;BME280;10038;42.662;23.278;2023-04-07T07:50:55;161395.50;;;10.28;38.12
19759;BME280;10038;42.662;23.278;2023-04-07T07:53:22;161486.16;;;10.62;37.49
19759;BME280;10038;42.662;23.278;2023-04-07T07:55:49;161356.88;;;10.13;38.41
19759;BME280;10038;42.662;23.278;2023-04-07T07:58:16;161242.19;;;9.70;39.51
19759;BME280;10038;42.662;23.278;2023-04-07T08:00:42;161093.03;;;9.13;40.12
19759;BME280;10038;42.662;23.278;2023-04-07T08:03:11;161069.06;;;9.04;40.51
19759;BME280;10038;42.662;23.278;2023-04-07T08:05:38;161186.25;;;9.48;41.02
19759;BME280;10038;42.662;23.278;2023-04-07T08:08:05;161138.34;;;9.30;40.25
19759;BME280;10038;42.662;23.278;2023-04-07T08:10:32;161192.91;;;9.51;39.60
19759;BME280;10038;42.662;23.278;2023-04-07T08:12:58;161324.81;;;10.01;39.33
19759;BME280;10038;42.662;23.278;2023-04-07T08:15:25;161380.81;;;10.22;38.65
19759;BME280;10038;42.662;23.278;2023-04-07T08:17:52;161268.88;;;9.80;39.33
19759;BME280;10038;42.662;23.278;2023-04-07T08:20:21;161442.16;;;10.45;37.75
19759;BME280;10038;42.662;23.278;2023-04-07T08:22:48;161364.88;;;10.16;38.03
19759;BME280;10038;42.662;23.278;2023-04-07T08:25:15;161220.88;;;9.62;40.33
19759;BME280;10038;42.662;23.278;2023-04-07T08:27:42;161194.25;;;9.52;40.29
19759;BME280;10038;42.662;23.278;2023-04-07T08:30:09;161347.47;;;10.09;39.75
19759;BME280;10038;42.662;23.278;2023-04-07T08:32:37;161156.97;;;9.37;40.76
19759;BME280;10038;42.662;23.278;2023-04-07T08:35:05;67869.03;;;-143.79;100.00
19759;BME280;10038;42.662;23.278;2023-04-07T08:37:34;67869.03;;;-143.79;100.00
19759;BME280;10038;42.662;23.278;2023-04-07T08:40:01;160943.97;;;8.57;41.53
19759;BME280;10038;42.662;23.278;2023-04-07T08:42:30;160967.88;;;8.66;41.72
19759;BME280;10038;42.662;23.278;2023-04-07T08:45:01;161167.63;;;9.41;40.95
19759;BME280;10038;42.662;23.278;2023-04-07T08:47:30;161628.81;;;11.16;37.77
19759;BME280;10038;42.662;23.278;2023-04-07T08:50:00;161687.50;;;11.38;36.29
19759;BME280;10038;42.662;23.278;2023-04-07T08:52:33;161539.50;;;10.82;37.99
19759;BME280;10038;42.662;23.278;2023-04-07T08:55:04;161535.47;;;10.81;38.13
19759;BME280;10038;42.662;23.278;2023-04-07T08:57:33;161674.16;;;11.33;36.77
19759;BME280;10038;42.662;23.278;2023-04-07T09:00:01;162006.47;;;12.59;34.63
19759;BME280;10038;42.662;23.278;2023-04-07T09:02:31;162352.50;;;13.89;33.25
19759;BME280;10038;42.662;23.278;2023-04-07T09:05:00;162134.75;;;13.07;33.67
19759;BME280;10038;42.662;23.278;2023-04-07T09:07:27;162217.53;;;13.38;33.17
19759;BME280;10038;42.662;23.278;2023-04-07T09:09:55;161970.44;;;12.45;34.60
19759;BME280;10038;42.662;23.278;2023-04-07T09:12:22;161775.59;;;11.71;35.18
19759;BME280;10038;42.662;23.278;2023-04-07T09:14:49;161679.50;;;11.35;36.49
19759;BME280;10038;42.662;23.278;2023-04-07T09:17:16;161668.84;;;11.31;35.70
19759;BME280;10038;42.662;23.278;2023-04-07T09:19:43;161648.81;;;11.23;36.49
19759;BME280;10038;42.662;23.278;2023-04-07T09:22:10;161764.84;;;11.67;35.74
19759;BME280;10038;42.662;23.278;2023-04-07T09:24:39;161767.53;;;11.68;36.38
19759;BME280;10038;42.662;23.278;2023-04-07T09:27:15;161655.50;;;11.26;37.19
19759;BME280;10038;42.662;23.278;2023-04-07T09:29:45;161699.47;;;11.43;37.02
19759;BME280;10038;42.662;23.278;2023-04-07T09:32:12;161698.19;;;11.42;36.77
19759;BME280;10038;42.662;23.278;2023-04-07T09:34:57;161706.19;;;11.45;37.12
19759;BME280;10038;42.662;23.278;2023-04-07T09:37:24;161564.81;;;10.92;37.41
19759;BME280;10038;42.662;23.278;2023-04-07T09:39:51;161576.78;;;10.96;38.19
19759;BME280;10038;42.662;23.278;2023-04-07T09:42:20;161348.81;;;10.10;38.82
19759;BME280;10038;42.662;23.278;2023-04-07T09:44:47;161666.16;;;11.30;38.37
19759;BME280;10038;42.662;23.278;2023-04-07T09:47:14;161796.94;;;11.79;37.92
19759;BME280;10038;42.662;23.278;2023-04-07T09:49:49;161993.13;;;12.54;36.40
19759;BME280;10038;42.662;23.278;2023-04-07T09:52:18;161861.00;;;12.04;36.30
19759;BME280;10038;42.662;23.278;2023-04-07T09:54:46;162027.84;;;12.67;34.66
19759;BME280;10038;42.662;23.278;2023-04-07T09:57:15;162957.13;;;16.17;30.99
19759;BME280;10038;42.662;23.278;2023-04-07T09:59:44;163029.41;;;16.44;29.91
19759;BME280;10038;42.662;23.278;2023-04-07T10:02:13;162706.84;;;15.23;30.86
19759;BME280;10038;42.662;23.278;2023-04-07T10:04:40;163092.38;;;16.68;29.91
19759;BME280;10038;42.662;23.278;2023-04-07T10:07:07;163266.47;;;17.34;28.88
19759;BME280;10038;42.662;23.278;2023-04-07T10:09:33;162825.97;;;15.68;30.19
19759;BME280;10038;42.662;23.278;2023-04-07T10:12:01;162071.91;;;12.83;34.53
19759;BME280;10038;42.662;23.278;2023-04-07T10:14:30;161794.25;;;11.78;36.18
19759;BME280;10038;42.662;23.278;2023-04-07T10:16:59;161635.47;;;11.18;36.32
19759;BME280;10038;42.662;23.278;2023-04-07T10:19:29;161612.78;;;11.10;37.36
19759;BME280;10038;42.662;23.278;2023-04-07T10:22:04;161431.47;;;10.41;37.80
19759;BME280;10038;42.662;23.278;2023-04-07T10:24:50;161812.97;;;11.86;36.63
19759;BME280;10038;42.662;23.278;2023-04-07T10:27:23;161882.34;;;12.12;36.08
19759;BME280;10038;42.662;23.278;2023-04-07T10:29:53;161881.03;;;12.11;36.98
19759;BME280;10038;42.662;23.278;2023-04-07T10:32:24;161895.69;;;12.17;36.92
19759;BME280;10038;42.662;23.278;2023-04-07T10:35:00;161832.97;;;11.93;37.45
19759;BME280;10038;42.662;23.278;2023-04-07T10:37:27;161666.16;;;11.30;37.84
19759;BME280;10038;42.662;23.278;2023-04-07T10:40:28;161466.16;;;10.54;38.81
19759;BME280;10038;42.662;23.278;2023-04-07T10:42:55;161562.13;;;10.91;38.97
19759;BME280;10038;42.662;23.278;2023-04-07T10:45:50;161635.47;;;11.18;38.77
19759;BME280;10038;42.662;23.278;2023-04-07T10:48:19;161583.44;;;10.99;41.23
19759;BME280;10038;42.662;23.278;2023-04-07T10:51:15;161511.47;;;10.72;42.00
19759;BME280;10038;42.662;23.278;2023-04-07T10:57:07;161643.47;;;11.21;41.90
19759;BME280;10038;42.662;23.278;2023-04-07T10:59:35;161480.84;;;10.60;42.02
19759;BME280;10038;42.662;23.278;2023-04-07T11:02:32;161506.13;;;10.70;42.54
19759;BME280;10038;42.662;23.278;2023-04-07T11:05:02;161687.50;;;11.38;42.10
19759;BME280;10038;42.662;23.278;2023-04-07T11:07:50;161788.94;;;11.76;40.81
19759;BME280;10038;42.662;23.278;2023-04-07T11:10:19;161788.94;;;11.76;40.40
19759;BME280;10038;42.662;23.278;2023-04-07T11:13:04;161636.81;;;11.19;41.96
19759;BME280;10038;42.662;23.278;2023-04-07T11:15:32;161588.81;;;11.01;42.09
19759;BME280;10038;42.662;23.278;2023-04-07T11:18:15;161562.13;;;10.91;42.37
19759;BME280;10038;42.662;23.278;2023-04-07T11:20:47;161578.13;;;10.97;42.54
19759;BME280;10038;42.662;23.278;2023-04-07T11:23:15;161663.47;;;11.29;42.02
19759;BME280;10038;42.662;23.278;2023-04-07T11:25:43;161618.16;;;11.12;42.09
19759;BME280;10038;42.662;23.278;2023-04-07T11:28:11;161628.81;;;11.16;42.50
19759;BME280;10038;42.662;23.278;2023-04-07T11:30:44;161628.81;;;11.16;42.54
19759;BME280;10038;42.662;23.278;2023-04-07T11:33:14;161732.88;;;11.55;42.31
19759;BME280;10038;42.662;23.278;2023-04-07T11:35:48;161724.84;;;11.52;42.06
19759;BME280;10038;42.662;23.278;2023-04-07T11:38:15;161660.84;;;11.28;42.71
19759;BME280;10038;42.662;23.278;2023-04-07T11:40:43;161556.81;;;10.89;43.56
19759;BME280;10038;42.662;23.278;2023-04-07T11:43:18;161354.13;;;10.12;44.44
19759;BME280;10038;42.662;23.278;2023-04-07T11:45:46;161436.84;;;10.43;44.48
19759;BME280;10038;42.662;23.278;2023-04-07T11:48:28;161495.50;;;10.65;44.39
19759;BME280;10038;42.662;23.278;2023-04-07T11:50:58;161471.50;;;10.56;43.61
19759;BME280;10038;42.662;23.278;2023-04-07T11:53:26;161396.84;;;10.28;44.86
19759;BME280;10038;42.662;23.278;2023-04-07T11:56:03;161504.78;;;10.69;44.46
19759;BME280;10038;42.662;23.278;2023-04-07T11:58:31;161464.81;;;10.54;44.03
19759;BME280;10038;42.662;23.278;2023-04-07T12:00:59;161560.81;;;10.90;44.15
19759;BME280;10038;42.662;23.278;2023-04-07T12:03:57;161702.16;;;11.44;42.87
19759;BME280;10038;42.662;23.278;2023-04-07T12:06:30;161887.72;;;12.14;42.48
19759;BME280;10038;42.662;23.278;2023-04-07T12:08:59;161877.00;;;12.10;41.45
19759;BME280;10038;42.662;23.278;2023-04-07T12:11:27;161772.91;;;11.70;41.99
19759;BME280;10038;42.662;23.278;2023-04-07T12:13:54;161927.72;;;12.29;41.15
19759;BME280;10038;42.662;23.278;2023-04-07T12:16:21;161835.66;;;11.94;41.47
19759;BME280;10038;42.662;23.278;2023-04-07T12:18:49;162023.84;;;12.65;40.63
19759;BME280;10038;42.662;23.278;2023-04-07T12:21:16;161947.75;;;12.36;40.72
19759;BME280;10038;42.662;23.278;2023-04-07T12:23:47;161990.44;;;12.53;40.79
19759;BME280;10038;42.662;23.278;2023-04-07T12:26:14;161925.03;;;12.28;41.19
19759;BME280;10038;42.662;23.278;2023-04-07T12:28:41;161829.00;;;11.92;42.14
19759;BME280;10038;42.662;23.278;2023-04-07T12:31:07;161818.28;;;11.88;41.93
19759;BME280;10038;42.662;23.278;2023-04-07T12:33:35;161812.97;;;11.86;42.83
19759;BME280;10038;42.662;23.278;2023-04-07T12:36:02;161859.63;;;12.03;41.87
19759;BME280;10038;42.662;23.278;2023-04-07T12:38:29;161835.66;;;11.94;40.58
19759;BME280;10038;42.662;23.278;2023-04-07T12:40:58;162053.22;;;12.76;40.73
19759;BME280;10038;42.662;23.278;2023-04-07T12:43:28;162149.44;;;13.13;40.71
19759;BME280;10038;42.662;23.278;2023-04-07T12:45:54;162107.97;;;12.97;39.11
19759;BME280;10038;42.662;23.278;2023-04-07T12:48:22;162066.56;;;12.81;39.69
19759;BME280;10038;42.662;23.278;2023-04-07T12:50:49;161942.41;;;12.34;40.20
19759;BME280;10038;42.662;23.278;2023-04-07T12:53:16;162055.88;;;12.77;40.59
19759;BME280;10038;42.662;23.278;2023-04-07T12:55:43;162150.75;;;13.13;40.37
19759;BME280;10038;42.662;23.278;2023-04-07T12:58:12;162029.19;;;12.67;40.53